sensor_id;sensor_type;location;lat;lon;timestamp;P1;durP1;ratioP1;P2;durP2;ratioP2
22490;SDS011;11412;50.802;4.350;2023-10-09T00:01:05;7.63;;;4.80;;
22490;SDS011;11412;50.802;4.350;2023-10-09T00:03:43;9.18;;;5.32;;
22490;SDS011;11412;50.802;4.350;2023-10-09T00:06:18;7.35;;;5.43;;
22490;SDS011;11412;50.802;4.350;2023-10-09T00:08:56;6.60;;;4.65;;
22490;SDS011;11412;50.802;4.350;2023-10-09T00:11:22;7.38;;;5.35;;
22490;SDS011;11412;50.802;4.350;2023-10-09T00:13:55;9.63;;;4.90;;
22490;SDS011;11412;50.802;4.350;2023-10-09T00:16:24;6.15;;;4.70;;
22490;SDS011;11412;50.802;4.350;2023-10-09T00:19:08;9.10;;;4.65;;
22490;SDS011;11412;50.802;4.350;2023-10-09T00:21:46;7.13;;;4.53;;
22490;SDS011;11412;50.802;4.350;2023-10-09T00:24:13;7.35;;;4.60;;
22490;SDS011;11412;50.802;4.350;2023-10-09T00:26:44;8.57;;;5.00;;
22490;SDS011;11412;50.802;4.350;2023-10-09T00:29:13;6.13;;;4.70;;
22490;SDS011;11412;50.802;4.350;2023-10-09T00:31:52;5.90;;;4.63;;
22490;SDS011;11412;50.802;4.350;2023-10-09T00:34:28;7.10;;;4.18;;
22490;SDS011;11412;50.802;4.350;2023-10-09T00:36:54;7.00;;;4.88;;
22490;SDS011;11412;50.802;4.350;2023-10-09T00:39:22;5.75;;;4.40;;
22490;SDS011;11412;50.802;4.350;2023-10-09T00:42:03;9.40;;;5.18;;
22490;SDS011;11412;50.802;4.350;2023-10-09T00:44:31;6.05;;;4.68;;
22490;SDS011;11412;50.802;4.350;2023-10-09T00:47:08;7.28;;;4.88;;
22490;SDS011;11412;50.802;4.350;2023-10-09T00:49:52;7.03;;;4.70;;
22490;SDS011;11412;50.802;4.350;2023-10-09T00:52:46;6.50;;;4.82;;
22490;SDS011;11412;50.802;4.350;2023-10-09T00:55:19;9.30;;;5.32;;
22490;SDS011;11412;50.802;4.350;2023-10-09T00:57:47;7.22;;;4.65;;
22490;SDS011;11412;50.802;4.350;2023-10-09T01:00:16;6.95;;;4.25;;
22490;SDS011;11412;50.802;4.350;2023-10-09T01:03:03;7.90;;;4.78;;
22490;SDS011;11412;50.802;4.350;2023-10-09T01:05:41;6.05;;;4.75;;
22490;SDS011;11412;50.802;4.350;2023-10-09T01:08:18;7.80;;;5.43;;
22490;SDS011;11412;50.802;4.350;2023-10-09T01:10:54;7.72;;;5.10;;
22490;SDS011;11412;50.802;4.350;2023-10-09T01:13:33;8.02;;;4.80;;
22490;SDS011;11412;50.802;4.350;2023-10-09T01:16:12;8.57;;;5.43;;
22490;SDS011;11412;50.802;4.350;2023-10-09T01:18:41;7.22;;;4.95;;
22490;SDS011;11412;50.802;4.350;2023-10-09T01:21:08;9.07;;;5.35;;
22490;SDS011;11412;50.802;4.350;2023-10-09T01:23:39;11.77;;;5.25;;
22490;SDS011;11412;50.802;4.350;2023-10-09T01:26:30;13.60;;;5.75;;
22490;SDS011;11412;50.802;4.350;2023-10-09T01:29:21;7.95;;;5.57;;
22490;SDS011;11412;50.802;4.350;2023-10-09T01:31:52;8.77;;;5.32;;
22490;SDS011;11412;50.802;4.350;2023-10-09T01:34:21;9.05;;;5.38;;
22490;SDS011;11412;50.802;4.350;2023-10-09T01:37:04;6.22;;;5.30;;
22490;SDS011;11412;50.802;4.350;2023-10-09T01:39:36;9.68;;;5.00;;
22490;SDS011;11412;50.802;4.350;2023-10-09T01:42:07;10.52;;;5.93;;
22490;SDS011;11412;50.802;4.350;2023-10-09T01:44:34;6.35;;;5.50;;
22490;SDS011;11412;50.802;4.350;2023-10-09T01:47:06;6.57;;;4.90;;
22490;SDS011;11412;50.802;4.350;2023-10-09T01:49:39;7.82;;;4.65;;
22490;SDS011;11412;50.802;4.350;2023-10-09T01:52:09;8.82;;;5.05;;
22490;SDS011;11412;50.802;4.350;2023-10-09T01:54:37;7.07;;;5.22;;
22490;SDS011;11412;50.802;4.350;2023-10-09T01:57:05;7.97;;;5.43;;
22490;SDS011;11412;50.802;4.350;2023-10-09T01:59:37;12.27;;;5.22;;
22490;SDS011;11412;50.802;4.350;2023-10-09T02:02:08;8.40;;;5.88;;
22490;SDS011;11412;50.802;4.350;2023-10-09T02:07:37;8.05;;;5.07;;
22490;SDS011;11412;50.802;4.350;2023-10-09T02:10:13;10.05;;;5.95;;
22490;SDS011;11412;50.802;4.350;2023-10-09T02:12:52;8.15;;;5.45;;
22490;SDS011;11412;50.802;4.350;2023-10-09T02:15:23;8.73;;;5.85;;
22490;SDS011;11412;50.802;4.350;2023-10-09T02:18:11;10.60;;;5.80;;
22490;SDS011;11412;50.802;4.350;2023-10-09T02:20:51;7.53;;;5.40;;
22490;SDS011;11412;50.802;4.350;2023-10-09T02:23:30;9.95;;;5.75;;
22490;SDS011;11412;50.802;4.350;2023-10-09T02:26:09;8.38;;;5.72;;
22490;SDS011;11412;50.802;4.350;2023-10-09T02:28:42;7.27;;;5.27;;
22490;SDS011;11412;50.802;4.350;2023-10-09T02:31:12;6.90;;;5.28;;
22490;SDS011;11412;50.802;4.350;2023-10-09T02:33:38;8.70;;;5.32;;
22490;SDS011;11412;50.802;4.350;2023-10-09T02:36:07;11.65;;;5.85;;
22490;SDS011;11412;50.802;4.350;2023-10-09T02:38:33;12.50;;;5.07;;
22490;SDS011;11412;50.802;4.350;2023-10-09T02:41:05;6.90;;;5.45;;
22490;SDS011;11412;50.802;4.350;2023-10-09T02:43:32;6.55;;;5.20;;
22490;SDS011;11412;50.802;4.350;2023-10-09T02:46:12;8.13;;;5.18;;
22490;SDS011;11412;50.802;4.350;2023-10-09T02:48:48;7.95;;;5.05;;
22490;SDS011;11412;50.802;4.350;2023-10-09T02:51:18;8.80;;;5.75;;
22490;SDS011;11412;50.802;4.350;2023-10-09T02:53:59;9.35;;;5.50;;
22490;SDS011;11412;50.802;4.350;2023-10-09T02:56:32;7.13;;;5.20;;
22490;SDS011;11412;50.802;4.350;2023-10-09T02:59:06;7.05;;;5.55;;
22490;SDS011;11412;50.802;4.350;2023-10-09T03:01:32;7.85;;;5.35;;
22490;SDS011;11412;50.802;4.350;2023-10-09T03:04:03;7.57;;;5.30;;
22490;SDS011;11412;50.802;4.350;2023-10-09T03:06:31;9.73;;;5.72;;
22490;SDS011;11412;50.802;4.350;2023-10-09T03:09:02;8.70;;;5.65;;
22490;SDS011;11412;50.802;4.350;2023-10-09T03:11:42;9.82;;;6.32;;
22490;SDS011;11412;50.802;4.350;2023-10-09T03:14:13;8.82;;;5.97;;
22490;SDS011;11412;50.802;4.350;2023-10-09T03:16:40;12.55;;;6.47;;
22490;SDS011;11412;50.802;4.350;2023-10-09T03:19:06;12.93;;;6.82;;
22490;SDS011;11412;50.802;4.350;2023-10-09T03:21:32;10.63;;;6.13;;
22490;SDS011;11412;50.802;4.350;2023-10-09T03:23:58;8.80;;;6.22;;
22490;SDS011;11412;50.802;4.350;2023-10-09T03:26:25;8.77;;;5.90;;
22490;SDS011;11412;50.802;4.350;2023-10-09T03:28:51;9.57;;;5.93;;
22490;SDS011;11412;50.802;4.350;2023-10-09T03:31:19;8.68;;;5.75;;
22490;SDS011;11412;50.802;4.350;2023-10-09T03:33:47;8.43;;;6.00;;
22490;SDS011;11412;50.802;4.350;2023-10-09T03:36:13;9.43;;;5.80;;
22490;SDS011;11412;50.802;4.350;2023-10-09T03:38:42;8.20;;;5.75;;
22490;SDS011;11412;50.802;4.350;2023-10-09T03:41:07;9.23;;;5.53;;
22490;SDS011;11412;50.802;4.350;2023-10-09T03:43:37;8.15;;;5.97;;
22490;SDS011;11412;50.802;4.350;2023-10-09T03:46:09;7.53;;;5.88;;
22490;SDS011;11412;50.802;4.350;2023-10-09T03:48:46;7.75;;;5.45;;
22490;SDS011;11412;50.802;4.350;2023-10-09T03:51:16;9.50;;;5.85;;
22490;SDS011;11412;50.802;4.350;2023-10-09T03:53:48;9.57;;;5.70;;
22490;SDS011;11412;50.802;4.350;2023-10-09T03:56:17;7.43;;;5.30;;
22490;SDS011;11412;50.802;4.350;2023-10-09T03:58:47;7.13;;;5.60;;
22490;SDS011;11412;50.802;4.350;2023-10-09T04:01:16;6.75;;;5.53;;
22490;SDS011;11412;50.802;4.350;2023-10-09T04:04:03;7.40;;;5.45;;
22490;SDS011;11412;50.802;4.350;2023-10-09T04:06:31;8.18;;;5.65;;
22490;SDS011;11412;50.802;4.350;2023-10-09T04:09:00;9.20;;;6.20;;
22490;SDS011;11412;50.802;4.350;2023-10-09T04:11:39;8.98;;;5.75;;
22490;SDS011;11412;50.802;4.350;2023-10-09T04:14:08;9.10;;;5.88;;
22490;SDS011;11412;50.802;4.350;2023-10-09T04:16:39;8.18;;;5.45;;
22490;SDS011;11412;50.802;4.350;2023-10-09T04:19:17;11.85;;;6.25;;
22490;SDS011;11412;50.802;4.350;2023-10-09T04:21:50;9.88;;;6.25;;
22490;SDS011;11412;50.802;4.350;2023-10-09T04:24:20;10.27;;;6.13;;
22490;SDS011;11412;50.802;4.350;2023-10-09T04:26:46;9.00;;;5.82;;
22490;SDS011;11412;50.802;4.350;2023-10-09T04:29:12;9.10;;;6.05;;
22490;SDS011;11412;50.802;4.350;2023-10-09T04:32:03;9.50;;;5.85;;
22490;SDS011;11412;50.802;4.350;2023-10-09T04:34:33;8.23;;;6.60;;
22490;SDS011;11412;50.802;4.350;2023-10-09T04:37:13;12.57;;;7.32;;
22490;SDS011;11412;50.802;4.350;2023-10-09T04:39:39;9.32;;;6.85;;
22490;SDS011;11412;50.802;4.350;2023-10-09T04:42:12;11.25;;;7.03;;
22490;SDS011;11412;50.802;4.350;2023-10-09T04:44:50;8.77;;;6.68;;
22490;SDS011;11412;50.802;4.350;2023-10-09T04:47:32;9.25;;;7.05;;
22490;SDS011;11412;50.802;4.350;2023-10-09T04:50:07;13.02;;;6.78;;
22490;SDS011;11412;50.802;4.350;2023-10-09T04:53:00;13.07;;;7.45;;
22490;SDS011;11412;50.802;4.350;2023-10-09T04:55:47;10.82;;;6.40;;
22490;SDS011;11412;50.802;4.350;2023-10-09T04:58:22;10.73;;;6.80;;
22490;SDS011;11412;50.802;4.350;2023-10-09T05:00:54;9.98;;;6.50;;
22490;SDS011;11412;50.802;4.350;2023-10-09T05:03:22;14.73;;;7.85;;
22490;SDS011;11412;50.802;4.350;2023-10-09T05:06:09;11.93;;;7.03;;
22490;SDS011;11412;50.802;4.350;2023-10-09T05:08:54;11.48;;;6.80;;
22490;SDS011;11412;50.802;4.350;2023-10-09T05:11:22;10.77;;;6.38;;
22490;SDS011;11412;50.802;4.350;2023-10-09T05:14:18;8.70;;;6.57;;
22490;SDS011;11412;50.802;4.350;2023-10-09T05:16:52;11.10;;;6.30;;
22490;SDS011;11412;50.802;4.350;2023-10-09T05:19:26;8.38;;;6.63;;
22490;SDS011;11412;50.802;4.350;2023-10-09T05:22:07;14.32;;;6.95;;
22490;SDS011;11412;50.802;4.350;2023-10-09T05:24:42;10.35;;;6.53;;
22490;SDS011;11412;50.802;4.350;2023-10-09T05:27:10;10.02;;;7.10;;
22490;SDS011;11412;50.802;4.350;2023-10-09T05:29:49;14.85;;;7.88;;
22490;SDS011;11412;50.802;4.350;2023-10-09T05:32:47;11.90;;;6.78;;
22490;SDS011;11412;50.802;4.350;2023-10-09T05:35:20;12.00;;;6.90;;
22490;SDS011;11412;50.802;4.350;2023-10-09T05:37:55;13.95;;;7.90;;
22490;SDS011;11412;50.802;4.350;2023-10-09T05:40:27;12.77;;;7.47;;
22490;SDS011;11412;50.802;4.350;2023-10-09T05:42:56;11.55;;;7.13;;
22490;SDS011;11412;50.802;4.350;2023-10-09T05:45:25;8.93;;;6.90;;
22490;SDS011;11412;50.802;4.350;2023-10-09T05:48:10;11.18;;;7.25;;
22490;SDS011;11412;50.802;4.350;2023-10-09T05:50:39;10.85;;;8.10;;
22490;SDS011;11412;50.802;4.350;2023-10-09T05:53:25;11.73;;;7.10;;
22490;SDS011;11412;50.802;4.350;2023-10-09T05:56:09;9.63;;;6.82;;
22490;SDS011;11412;50.802;4.350;2023-10-09T05:58:54;9.68;;;7.35;;
22490;SDS011;11412;50.802;4.350;2023-10-09T06:04:12;11.73;;;6.90;;
22490;SDS011;11412;50.802;4.350;2023-10-09T06:06:42;16.83;;;7.20;;
22490;SDS011;11412;50.802;4.350;2023-10-09T06:09:12;13.07;;;7.55;;
22490;SDS011;11412;50.802;4.350;2023-10-09T06:11:38;14.27;;;7.30;;
22490;SDS011;11412;50.802;4.350;2023-10-09T06:14:28;13.52;;;7.47;;
22490;SDS011;11412;50.802;4.350;2023-10-09T06:16:54;12.57;;;7.22;;
22490;SDS011;11412;50.802;4.350;2023-10-09T06:19:23;11.32;;;7.20;;
22490;SDS011;11412;50.802;4.350;2023-10-09T06:22:08;14.30;;;7.80;;
22490;SDS011;11412;50.802;4.350;2023-10-09T06:24:37;21.10;;;8.20;;
22490;SDS011;11412;50.802;4.350;2023-10-09T06:27:23;14.57;;;7.95;;
22490;SDS011;11412;50.802;4.350;2023-10-09T06:30:09;14.00;;;8.15;;
22490;SDS011;11412;50.802;4.350;2023-10-09T06:32:44;12.15;;;8.73;;
22490;SDS011;11412;50.802;4.350;2023-10-09T06:35:18;11.07;;;7.28;;
22490;SDS011;11412;50.802;4.350;2023-10-09T06:37:49;12.82;;;8.25;;
22490;SDS011;11412;50.802;4.350;2023-10-09T06:40:29;16.73;;;8.50;;
22490;SDS011;11412;50.802;4.350;2023-10-09T06:43:16;12.05;;;8.13;;
22490;SDS011;11412;50.802;4.350;2023-10-09T06:45:45;12.93;;;8.23;;
22490;SDS011;11412;50.802;4.350;2023-10-09T06:48:11;16.50;;;8.48;;
22490;SDS011;11412;50.802;4.350;2023-10-09T06:50:57;13.15;;;8.50;;
22490;SDS011;11412;50.802;4.350;2023-10-09T06:53:29;12.38;;;8.30;;
22490;SDS011;11412;50.802;4.350;2023-10-09T06:56:14;10.52;;;7.93;;
22490;SDS011;11412;50.802;4.350;2023-10-09T06:59:09;12.52;;;8.90;;
22490;SDS011;11412;50.802;4.350;2023-10-09T07:01:48;12.70;;;7.63;;
22490;SDS011;11412;50.802;4.350;2023-10-09T07:04:32;13.32;;;8.55;;
22490;SDS011;11412;50.802;4.350;2023-10-09T07:06:58;14.50;;;8.75;;
22490;SDS011;11412;50.802;4.350;2023-10-09T07:09:24;14.73;;;9.13;;
22490;SDS011;11412;50.802;4.350;2023-10-09T07:12:07;14.00;;;8.77;;
22490;SDS011;11412;50.802;4.350;2023-10-09T07:14:51;13.25;;;8.55;;
22490;SDS011;11412;50.802;4.350;2023-10-09T07:17:49;15.27;;;8.65;;
22490;SDS011;11412;50.802;4.350;2023-10-09T07:20:17;14.88;;;8.63;;
22490;SDS011;11412;50.802;4.350;2023-10-09T07:23:02;15.10;;;8.77;;
22490;SDS011;11412;50.802;4.350;2023-10-09T07:25:43;13.77;;;9.27;;
22490;SDS011;11412;50.802;4.350;2023-10-09T07:28:22;15.20;;;8.77;;
22490;SDS011;11412;50.802;4.350;2023-10-09T07:30:55;12.75;;;9.25;;
22490;SDS011;11412;50.802;4.350;2023-10-09T07:33:23;12.65;;;8.35;;
22490;SDS011;11412;50.802;4.350;2023-10-09T07:36:00;16.38;;;9.00;;
22490;SDS011;11412;50.802;4.350;2023-10-09T07:38:33;12.50;;;8.68;;
22490;SDS011;11412;50.802;4.350;2023-10-09T07:41:02;22.25;;;9.85;;
22490;SDS011;11412;50.802;4.350;2023-10-09T07:43:31;18.52;;;9.85;;
22490;SDS011;11412;50.802;4.350;2023-10-09T07:46:08;13.43;;;9.18;;
22490;SDS011;11412;50.802;4.350;2023-10-09T07:48:54;17.90;;;9.95;;
22490;SDS011;11412;50.802;4.350;2023-10-09T07:51:21;13.88;;;9.05;;
22490;SDS011;11412;50.802;4.350;2023-10-09T07:53:56;14.90;;;10.30;;
22490;SDS011;11412;50.802;4.350;2023-10-09T07:56:35;15.70;;;10.10;;
22490;SDS011;11412;50.802;4.350;2023-10-09T07:59:07;16.65;;;9.52;;
22490;SDS011;11412;50.802;4.350;2023-10-09T08:01:46;13.57;;;9.55;;
22490;SDS011;11412;50.802;4.350;2023-10-09T08:04:28;17.00;;;10.52;;
22490;SDS011;11412;50.802;4.350;2023-10-09T08:09:34;17.88;;;10.07;;
22490;SDS011;11412;50.802;4.350;2023-10-09T08:12:11;17.92;;;10.40;;
22490;SDS011;11412;50.802;4.350;2023-10-09T08:14:56;18.15;;;10.70;;
22490;SDS011;11412;50.802;4.350;2023-10-09T08:17:44;15.55;;;10.40;;
22490;SDS011;11412;50.802;4.350;2023-10-09T08:20:26;21.60;;;10.52;;
22490;SDS011;11412;50.802;4.350;2023-10-09T08:22:53;20.00;;;10.38;;
22490;SDS011;11412;50.802;4.350;2023-10-09T08:25:22;19.25;;;9.32;;
22490;SDS011;11412;50.802;4.350;2023-10-09T08:27:58;21.50;;;9.88;;
22490;SDS011;11412;50.802;4.350;2023-10-09T08:30:45;18.48;;;10.13;;
22490;SDS011;11412;50.802;4.350;2023-10-09T08:33:18;17.25;;;9.75;;
22490;SDS011;11412;50.802;4.350;2023-10-09T08:36:06;21.15;;;10.45;;
22490;SDS011;11412;50.802;4.350;2023-10-09T08:38:40;11.05;;;8.23;;
22490;SDS011;11412;50.802;4.350;2023-10-09T08:41:09;15.20;;;9.77;;
22490;SDS011;11412;50.802;4.350;2023-10-09T08:43:47;14.80;;;10.30;;
22490;SDS011;11412;50.802;4.350;2023-10-09T08:46:15;20.43;;;10.10;;
22490;SDS011;11412;50.802;4.350;2023-10-09T08:48:47;15.15;;;9.40;;
22490;SDS011;11412;50.802;4.350;2023-10-09T08:51:13;18.50;;;9.77;;
22490;SDS011;11412;50.802;4.350;2023-10-09T08:53:39;15.25;;;9.50;;
22490;SDS011;11412;50.802;4.350;2023-10-09T08:56:11;20.67;;;10.20;;
22490;SDS011;11412;50.802;4.350;2023-10-09T08:58:40;17.80;;;9.52;;
22490;SDS011;11412;50.802;4.350;2023-10-09T09:01:06;20.77;;;10.80;;
22490;SDS011;11412;50.802;4.350;2023-10-09T09:03:39;20.73;;;9.93;;
22490;SDS011;11412;50.802;4.350;2023-10-09T09:06:09;18.80;;;8.88;;
22490;SDS011;11412;50.802;4.350;2023-10-09T09:08:35;19.45;;;9.98;;
22490;SDS011;11412;50.802;4.350;2023-10-09T09:14:00;16.52;;;10.40;;
22490;SDS011;11412;50.802;4.350;2023-10-09T09:16:31;18.13;;;9.57;;
22490;SDS011;11412;50.802;4.350;2023-10-09T09:18:59;16.85;;;10.38;;
22490;SDS011;11412;50.802;4.350;2023-10-09T09:21:42;17.17;;;10.07;;
22490;SDS011;11412;50.802;4.350;2023-10-09T09:24:12;15.52;;;10.07;;
22490;SDS011;11412;50.802;4.350;2023-10-09T09:26:52;15.07;;;10.05;;
22490;SDS011;11412;50.802;4.350;2023-10-09T09:32:05;16.75;;;10.02;;
22490;SDS011;11412;50.802;4.350;2023-10-09T09:34:45;17.25;;;10.80;;
22490;SDS011;11412;50.802;4.350;2023-10-09T09:37:18;14.63;;;10.00;;
22490;SDS011;11412;50.802;4.350;2023-10-09T09:39:46;14.55;;;10.13;;
22490;SDS011;11412;50.802;4.350;2023-10-09T09:42:15;18.35;;;11.00;;
22490;SDS011;11412;50.802;4.350;2023-10-09T09:44:50;15.95;;;10.10;;
22490;SDS011;11412;50.802;4.350;2023-10-09T09:47:17;13.68;;;9.98;;
22490;SDS011;11412;50.802;4.350;2023-10-09T09:49:52;15.40;;;10.43;;
22490;SDS011;11412;50.802;4.350;2023-10-09T09:52:25;14.52;;;9.40;;
22490;SDS011;11412;50.802;4.350;2023-10-09T09:55:03;18.73;;;10.77;;
22490;SDS011;11412;50.802;4.350;2023-10-09T09:57:30;13.48;;;10.77;;
22490;SDS011;11412;50.802;4.350;2023-10-09T10:00:04;18.60;;;10.27;;
22490;SDS011;11412;50.802;4.350;2023-10-09T10:02:35;15.40;;;9.82;;
22490;SDS011;11412;50.802;4.350;2023-10-09T10:05:04;15.00;;;9.73;;
22490;SDS011;11412;50.802;4.350;2023-10-09T10:07:36;18.10;;;9.45;;
22490;SDS011;11412;50.802;4.350;2023-10-09T10:10:53;15.18;;;8.45;;
22490;SDS011;11412;50.802;4.350;2023-10-09T10:13:05;19.08;;;10.18;;
22490;SDS011;11412;50.802;4.350;2023-10-09T10:15:56;13.63;;;9.55;;
22490;SDS011;11412;50.802;4.350;2023-10-09T10:18:23;14.75;;;8.73;;
22490;SDS011;11412;50.802;4.350;2023-10-09T10:23:39;17.55;;;8.73;;
22490;SDS011;11412;50.802;4.350;2023-10-09T10:26:21;16.33;;;10.20;;
22490;SDS011;11412;50.802;4.350;2023-10-09T10:29:28;15.38;;;8.50;;
22490;SDS011;11412;50.802;4.350;2023-10-09T10:31:59;13.27;;;9.48;;
22490;SDS011;11412;50.802;4.350;2023-10-09T10:37:34;12.77;;;8.98;;
22490;SDS011;11412;50.802;4.350;2023-10-09T10:40:09;16.83;;;9.77;;
22490;SDS011;11412;50.802;4.350;2023-10-09T10:43:03;16.77;;;9.07;;
22490;SDS011;11412;50.802;4.350;2023-10-09T10:45:38;11.10;;;8.57;;
22490;SDS011;11412;50.802;4.350;2023-10-09T10:48:10;12.88;;;9.13;;
22490;SDS011;11412;50.802;4.350;2023-10-09T10:50:48;16.30;;;9.00;;
22490;SDS011;11412;50.802;4.350;2023-10-09T10:53:22;16.38;;;9.27;;
22490;SDS011;11412;50.802;4.350;2023-10-09T10:55:56;12.32;;;8.70;;
22490;SDS011;11412;50.802;4.350;2023-10-09T10:58:23;17.00;;;9.98;;
22490;SDS011;11412;50.802;4.350;2023-10-09T11:01:00;13.77;;;9.15;;
22490;SDS011;11412;50.802;4.350;2023-10-09T11:03:37;16.08;;;9.15;;
22490;SDS011;11412;50.802;4.350;2023-10-09T11:06:30;13.15;;;8.75;;
22490;SDS011;11412;50.802;4.350;2023-10-09T11:09:07;17.10;;;9.10;;
22490;SDS011;11412;50.802;4.350;2023-10-09T11:11:46;17.33;;;8.85;;
22490;SDS011;11412;50.802;4.350;2023-10-09T11:14:14;16.30;;;8.60;;
22490;SDS011;11412;50.802;4.350;2023-10-09T11:16:40;12.27;;;7.75;;
22490;SDS011;11412;50.802;4.350;2023-10-09T11:19:10;17.00;;;9.07;;
22490;SDS011;11412;50.802;4.350;2023-10-09T11:22:00;17.83;;;8.60;;
22490;SDS011;11412;50.802;4.350;2023-10-09T11:24:33;13.43;;;8.55;;
22490;SDS011;11412;50.802;4.350;2023-10-09T11:27:02;12.32;;;8.10;;
22490;SDS011;11412;50.802;4.350;2023-10-09T11:29:32;16.27;;;8.95;;
22490;SDS011;11412;50.802;4.350;2023-10-09T11:32:16;15.68;;;8.50;;
22490;SDS011;11412;50.802;4.350;2023-10-09T11:34:50;12.17;;;7.37;;
22490;SDS011;11412;50.802;4.350;2023-10-09T11:37:33;13.95;;;8.20;;
22490;SDS011;11412;50.802;4.350;2023-10-09T11:40:14;13.65;;;8.32;;
22490;SDS011;11412;50.802;4.350;2023-10-09T11:42:59;12.82;;;8.18;;
22490;SDS011;11412;50.802;4.350;2023-10-09T11:45:26;11.75;;;6.95;;
22490;SDS011;11412;50.802;4.350;2023-10-09T11:48:15;10.60;;;7.60;;
22490;SDS011;11412;50.802;4.350;2023-10-09T11:50:58;14.70;;;8.00;;
22490;SDS011;11412;50.802;4.350;2023-10-09T11:53:39;11.15;;;8.13;;
22490;SDS011;11412;50.802;4.350;2023-10-09T11:56:08;14.63;;;8.05;;
22490;SDS011;11412;50.802;4.350;2023-10-09T11:58:39;12.15;;;7.70;;
22490;SDS011;11412;50.802;4.350;2023-10-09T12:01:10;14.20;;;8.02;;
22490;SDS011;11412;50.802;4.350;2023-10-09T12:03:43;14.77;;;8.70;;
22490;SDS011;11412;50.802;4.350;2023-10-09T12:06:14;13.20;;;8.45;;
22490;SDS011;11412;50.802;4.350;2023-10-09T12:08:44;16.25;;;7.45;;
22490;SDS011;11412;50.802;4.350;2023-10-09T12:11:12;13.02;;;7.68;;
22490;SDS011;11412;50.802;4.350;2023-10-09T12:13:39;10.85;;;7.18;;
22490;SDS011;11412;50.802;4.350;2023-10-09T12:16:07;12.68;;;7.75;;
22490;SDS011;11412;50.802;4.350;2023-10-09T12:18:34;13.27;;;7.28;;
22490;SDS011;11412;50.802;4.350;2023-10-09T12:21:02;13.48;;;7.43;;
22490;SDS011;11412;50.802;4.350;2023-10-09T12:23:29;13.48;;;7.03;;
22490;SDS011;11412;50.802;4.350;2023-10-09T12:26:00;11.80;;;7.00;;
22490;SDS011;11412;50.802;4.350;2023-10-09T12:28:27;10.35;;;7.20;;
22490;SDS011;11412;50.802;4.350;2023-10-09T12:30:53;13.75;;;7.97;;
22490;SDS011;11412;50.802;4.350;2023-10-09T12:33:19;10.73;;;7.30;;
22490;SDS011;11412;50.802;4.350;2023-10-09T12:35:53;14.00;;;7.40;;
22490;SDS011;11412;50.802;4.350;2023-10-09T12:38:25;11.25;;;6.72;;
22490;SDS011;11412;50.802;4.350;2023-10-09T12:41:06;14.13;;;7.80;;
22490;SDS011;11412;50.802;4.350;2023-10-09T12:43:45;12.13;;;7.05;;
22490;SDS011;11412;50.802;4.350;2023-10-09T12:46:12;10.63;;;6.78;;
22490;SDS011;11412;50.802;4.350;2023-10-09T12:48:42;12.35;;;7.72;;
22490;SDS011;11412;50.802;4.350;2023-10-09T12:51:11;9.80;;;6.88;;
22490;SDS011;11412;50.802;4.350;2023-10-09T12:53:42;13.48;;;7.35;;
22490;SDS011;11412;50.802;4.350;2023-10-09T12:56:07;14.73;;;7.22;;
22490;SDS011;11412;50.802;4.350;2023-10-09T12:58:34;9.50;;;6.95;;
22490;SDS011;11412;50.802;4.350;2023-10-09T13:01:03;14.32;;;6.55;;
22490;SDS011;11412;50.802;4.350;2023-10-09T13:03:36;10.00;;;7.57;;
22490;SDS011;11412;50.802;4.350;2023-10-09T13:06:05;10.05;;;6.45;;
22490;SDS011;11412;50.802;4.350;2023-10-09T13:08:35;12.60;;;8.02;;
22490;SDS011;11412;50.802;4.350;2023-10-09T13:11:05;17.38;;;8.48;;
22490;SDS011;11412;50.802;4.350;2023-10-09T13:13:36;17.40;;;7.80;;
22490;SDS011;11412;50.802;4.350;2023-10-09T13:16:07;12.07;;;7.20;;
22490;SDS011;11412;50.802;4.350;2023-10-09T13:18:38;12.07;;;7.07;;
22490;SDS011;11412;50.802;4.350;2023-10-09T13:21:05;10.80;;;7.03;;
22490;SDS011;11412;50.802;4.350;2023-10-09T13:23:31;14.68;;;7.55;;
22490;SDS011;11412;50.802;4.350;2023-10-09T13:26:11;15.95;;;7.30;;
22490;SDS011;11412;50.802;4.350;2023-10-09T13:28:54;10.63;;;7.00;;
22490;SDS011;11412;50.802;4.350;2023-10-09T13:31:20;10.90;;;7.10;;
22490;SDS011;11412;50.802;4.350;2023-10-09T13:33:50;14.02;;;7.93;;
22490;SDS011;11412;50.802;4.350;2023-10-09T13:36:20;15.65;;;8.10;;
22490;SDS011;11412;50.802;4.350;2023-10-09T13:39:14;14.27;;;7.90;;
22490;SDS011;11412;50.802;4.350;2023-10-09T13:41:55;11.27;;;8.02;;
22490;SDS011;11412;50.802;4.350;2023-10-09T13:44:27;13.20;;;8.25;;
22490;SDS011;11412;50.802;4.350;2023-10-09T13:46:57;12.85;;;7.68;;
22490;SDS011;11412;50.802;4.350;2023-10-09T13:49:23;11.82;;;8.27;;
22490;SDS011;11412;50.802;4.350;2023-10-09T13:51:55;13.63;;;7.88;;
22490;SDS011;11412;50.802;4.350;2023-10-09T13:54:22;12.02;;;8.18;;
22490;SDS011;11412;50.802;4.350;2023-10-09T13:57:05;12.02;;;7.47;;
22490;SDS011;11412;50.802;4.350;2023-10-09T13:59:35;16.17;;;9.63;;
22490;SDS011;11412;50.802;4.350;2023-10-09T14:02:02;13.13;;;8.00;;
22490;SDS011;11412;50.802;4.350;2023-10-09T14:04:34;13.30;;;8.60;;
22490;SDS011;11412;50.802;4.350;2023-10-09T14:07:00;15.90;;;9.10;;
22490;SDS011;11412;50.802;4.350;2023-10-09T14:09:27;10.70;;;7.32;;
22490;SDS011;11412;50.802;4.350;2023-10-09T14:11:56;13.35;;;8.10;;
22490;SDS011;11412;50.802;4.350;2023-10-09T14:14:41;13.10;;;8.75;;
22490;SDS011;11412;50.802;4.350;2023-10-09T14:19:46;13.30;;;8.15;;
22490;SDS011;11412;50.802;4.350;2023-10-09T14:22:16;17.40;;;9.52;;
22490;SDS011;11412;50.802;4.350;2023-10-09T14:24:43;14.57;;;9.70;;
22490;SDS011;11412;50.802;4.350;2023-10-09T14:27:12;15.93;;;9.23;;
22490;SDS011;11412;50.802;4.350;2023-10-09T14:29:47;14.07;;;8.73;;
22490;SDS011;11412;50.802;4.350;2023-10-09T14:32:13;13.82;;;8.88;;
22490;SDS011;11412;50.802;4.350;2023-10-09T14:34:40;13.38;;;8.82;;
22490;SDS011;11412;50.802;4.350;2023-10-09T14:37:16;12.20;;;8.85;;
22490;SDS011;11412;50.802;4.350;2023-10-09T14:39:45;17.88;;;9.43;;
22490;SDS011;11412;50.802;4.350;2023-10-09T14:42:14;10.98;;;8.10;;
22490;SDS011;11412;50.802;4.350;2023-10-09T14:44:40;13.18;;;7.68;;
22490;SDS011;11412;50.802;4.350;2023-10-09T14:47:07;13.43;;;8.60;;
22490;SDS011;11412;50.802;4.350;2023-10-09T14:49:33;15.50;;;7.75;;
22490;SDS011;11412;50.802;4.350;2023-10-09T14:52:08;17.02;;;10.13;;
22490;SDS011;11412;50.802;4.350;2023-10-09T14:54:37;17.20;;;8.40;;
22490;SDS011;11412;50.802;4.350;2023-10-09T14:57:03;15.32;;;8.05;;
22490;SDS011;11412;50.802;4.350;2023-10-09T14:59:32;16.05;;;9.63;;
22490;SDS011;11412;50.802;4.350;2023-10-09T15:01:58;15.57;;;9.25;;
22490;SDS011;11412;50.802;4.350;2023-10-09T15:04:25;14.98;;;7.55;;
22490;SDS011;11412;50.802;4.350;2023-10-09T15:06:51;12.95;;;7.38;;
22490;SDS011;11412;50.802;4.350;2023-10-09T15:09:17;15.57;;;8.15;;
22490;SDS011;11412;50.802;4.350;2023-10-09T15:11:53;12.63;;;7.97;;
22490;SDS011;11412;50.802;4.350;2023-10-09T15:14:19;14.98;;;8.32;;
22490;SDS011;11412;50.802;4.350;2023-10-09T15:16:46;11.43;;;7.10;;
22490;SDS011;11412;50.802;4.350;2023-10-09T15:19:12;12.90;;;7.95;;
22490;SDS011;11412;50.802;4.350;2023-10-09T15:21:41;11.02;;;7.80;;
22490;SDS011;11412;50.802;4.350;2023-10-09T15:24:11;15.18;;;7.78;;
22490;SDS011;11412;50.802;4.350;2023-10-09T15:26:47;14.45;;;8.50;;
22490;SDS011;11412;50.802;4.350;2023-10-09T15:29:22;21.77;;;8.55;;
22490;SDS011;11412;50.802;4.350;2023-10-09T15:31:56;16.35;;;7.30;;
22490;SDS011;11412;50.802;4.350;2023-10-09T15:34:38;14.55;;;8.35;;
22490;SDS011;11412;50.802;4.350;2023-10-09T15:37:04;16.80;;;7.78;;
22490;SDS011;11412;50.802;4.350;2023-10-09T15:39:32;10.80;;;7.20;;